Time;durP1;ratioP1;P1;durP2;ratioP2;P2;SDS_P1;SDS_P2;PMS_P1;PMS_P2;Temp;Humidity;BMP_temperature;BMP_pressure;BME280_temperature;BME280_humidity;BME280_pressure;Samples;Min_cycle;Max_cycle;Signal;HPM_P1;HPM_P2
2022/06/20 00:02:24;;;;;;;8.37;5.50;;;;;;;23.89;87.08;99459.44;5002852;28;20266;-78
2022/06/20 00:04:52;;;;;;;9.47;5.33;;;;;;;23.93;87.40;99461.81;5003278;28;20747;-77
2022/06/20 00:07:17;;;;;;;6.70;5.77;;;;;;;23.95;87.48;99465.19;5004060;28;20195;-76
2022/06/20 00:09:43;;;;;;;6.63;5.20;;;;;;;23.96;87.93;99465.13;5009539;28;20176;-76
2022/06/20 00:12:17;;;;;;;7.47;5.43;;;;;;;23.98;88.73;99457.88;5002493;28;20240;-76
2022/06/20 00:14:42;;;;;;;5.50;5.00;;;;;;;23.96;89.26;99453.66;5003751;28;20200;-75
2022/06/20 00:17:12;;;;;;;5.27;4.80;;;;;;;23.92;89.23;99445.16;4998577;28;20586;-76
2022/06/20 00:19:39;;;;;;;6.33;4.90;;;;;;;23.90;89.84;99442.59;5003650;28;20184;-77
2022/06/20 00:22:05;;;;;;;5.63;5.00;;;;;;;23.90;90.44;99437.31;5006509;28;20309;-76
2022/06/20 00:24:30;;;;;;;5.83;5.20;;;;;;;23.87;90.80;99445.50;5006395;28;20656;-77
2022/06/20 00:26:56;;;;;;;7.23;5.10;;;;;;;23.84;91.89;99453.69;5008353;28;20184;-76
2022/06/20 00:29:21;;;;;;;7.63;5.20;;;;;;;23.80;92.46;99444.28;4998322;28;21004;-76
2022/06/20 00:31:47;;;;;;;8.73;5.87;;;;;;;23.72;92.75;99452.81;5005127;28;20189;-76
2022/06/20 00:34:13;;;;;;;5.87;5.37;;;;;;;23.61;92.75;99442.25;5004349;28;20212;-76
2022/06/20 00:36:39;;;;;;;7.37;5.43;;;;;;;23.53;93.13;99447.25;5001998;28;22013;-75
2022/06/20 00:39:05;;;;;;;5.73;5.10;;;;;;;23.46;93.16;99443.44;5002275;28;20287;-76
2022/06/20 00:41:32;;;;;;;7.67;5.40;;;;;;;23.38;93.31;99444.84;5008003;28;20299;-76
2022/06/20 00:43:58;;;;;;;5.47;4.87;;;;;;;23.30;93.10;99434.03;5011740;28;20235;-77
2022/06/20 00:46:32;;;;;;;7.30;5.60;;;;;;;23.22;93.45;99431.97;5011900;28;20812;-76
2022/06/20 00:49:09;;;;;;;7.20;5.50;;;;;;;23.17;93.52;99449.91;5010948;28;20191;-76
2022/06/20 00:51:49;;;;;;;6.83;5.47;;;;;;;23.14;93.89;99451.00;5007868;28;20386;-75
2022/06/20 00:54:49;;;;;;;6.47;5.87;;;;;;;23.13;94.74;99453.75;5029288;28;21225;-75
2022/06/20 00:57:37;;;;;;;7.43;6.40;;;;;;;23.09;95.71;99458.41;5000539;28;20442;-76
2022/06/20 01:00:17;;;;;;;7.50;5.77;;;;;;;23.00;95.74;99456.47;5004212;28;20208;-76
2022/06/20 01:02:47;;;;;;;7.03;6.33;;;;;;;22.93;95.80;99447.31;4997973;28;20219;-77
2022/06/20 01:05:19;;;;;;;6.20;5.53;;;;;;;22.85;96.07;99450.53;5021507;28;20197;-76
2022/06/20 01:07:57;;;;;;;6.33;5.60;;;;;;;22.78;96.02;99447.50;5000563;28;20197;-77
2022/06/20 01:10:25;;;;;;;6.47;5.87;;;;;;;22.73;96.39;99462.84;5014563;28;20187;-76
2022/06/20 01:12:58;;;;;;;6.50;5.90;;;;;;;22.71;96.71;99458.59;5005403;28;20200;-76
2022/06/20 01:15:32;;;;;;;5.93;4.73;;;;;;;22.66;96.76;99451.91;5007672;28;20176;-76
2022/06/20 01:17:58;;;;;;;7.47;5.50;;;;;;;22.63;97.06;99448.63;5007664;28;20679;-76
2022/06/20 01:20:27;;;;;;;6.87;5.70;;;;;;;22.60;97.19;99452.31;5001567;28;20226;-76
2022/06/20 01:23:04;;;;;;;6.80;5.60;;;;;;;22.58;97.98;99446.31;5002490;28;20214;-76
2022/06/20 01:25:48;;;;;;;6.97;5.67;;;;;;;22.56;97.52;99450.03;5005257;28;20184;-76
2022/06/20 01:28:21;;;;;;;6.57;5.97;;;;;;;22.53;97.49;99448.47;5005997;28;20194;-77
2022/06/20 01:30:48;;;;;;;6.70;5.87;;;;;;;22.51;97.69;99445.94;5007580;28;20180;-77
2022/06/20 01:33:17;;;;;;;6.37;5.70;;;;;;;22.49;97.99;99444.38;5023268;28;20211;-76
2022/06/20 01:38:29;;;;;;;10.80;6.13;;;;;;;22.45;99.04;99458.72;5008472;28;20194;-76
2022/06/20 01:43:40;;;;;;;6.63;5.57;;;;;;;22.33;99.00;99457.75;5004048;28;20639;-77
2022/06/20 01:46:09;;;;;;;6.20;5.70;;;;;;;22.25;98.90;99458.31;5006270;28;20223;-76
2022/06/20 01:48:51;;;;;;;7.30;6.00;;;;;;;22.17;98.93;99456.22;5005421;28;20714;-76
2022/06/20 01:51:23;;;;;;;6.80;6.10;;;;;;;22.14;99.07;99477.53;5009055;28;20180;-75
2022/06/20 01:53:52;;;;;;;6.40;5.80;;;;;;;22.05;99.01;99467.63;5006077;28;20259;-75
2022/06/20 01:56:20;;;;;;;6.30;5.70;;;;;;;22.00;98.99;99457.41;5025052;28;20184;-76
2022/06/20 01:59:03;;;;;;;7.20;6.13;;;;;;;21.94;98.48;99465.72;5000089;28;20246;-75
2022/06/20 02:01:33;;;;;;;6.93;6.23;;;;;;;21.90;98.96;99459.84;5004747;28;20258;-75
2022/06/20 02:04:01;;;;;;;6.60;5.80;;;;;;;21.89;98.67;99465.22;5005131;28;20204;-76
2022/06/20 02:06:29;;;;;;;8.20;6.20;;;;;;;21.89;98.82;99465.22;5005476;28;20192;-76
2022/06/20 02:08:57;;;;;;;7.40;5.73;;;;;;;21.90;98.90;99459.00;5006663;28;20230;-76
2022/06/20 02:11:38;;;;;;;6.03;5.43;;;;;;;21.92;98.80;99462.38;5024269;28;20185;-76
2022/06/20 02:14:10;;;;;;;6.50;5.90;;;;;;;21.95;99.12;99475.31;5006360;28;20823;-75
2022/06/20 02:16:40;;;;;;;7.93;5.83;;;;;;;21.96;99.72;99474.38;5003657;28;20188;-76
2022/06/20 02:19:09;;;;;;;6.80;6.20;;;;;;;22.00;99.65;99473.22;5005871;28;20192;-76
2022/06/20 02:21:36;;;;;;;7.07;6.17;;;;;;;22.03;100.00;99473.00;5020887;28;20212;-77
2022/06/20 02:24:09;;;;;;;6.23;5.63;;;;;;;22.04;100.00;99476.47;5005213;28;20227;-76
2022/06/20 02:26:39;;;;;;;6.90;6.30;;;;;;;22.04;100.00;99489.66;5006372;28;20260;-76
2022/06/20 02:29:21;;;;;;;7.27;6.40;;;;;;;22.04;100.00;99490.50;5005258;28;20339;-77
2022/06/20 02:31:51;;;;;;;8.60;6.57;;;;;;;22.04;100.00;99514.22;5005038;28;20184;-76
2022/06/20 02:34:17;;;;;;;8.40;6.60;;;;;;;22.03;100.00;99528.34;5006769;28;20176;-76
2022/06/20 02:36:44;;;;;;;7.83;6.77;;;;;;;22.02;100.00;99552.13;5028514;28;20278;-77
2022/06/20 02:39:09;;;;;;;7.70;6.60;;;;;;;22.02;100.00;99560.91;5004830;28;20196;-77
2022/06/20 02:41:39;;;;;;;10.03;7.57;;;;;;;21.99;100.00;99583.97;5003712;28;20574;-76
2022/06/20 02:44:12;;;;;;;9.30;7.00;;;;;;;21.96;100.00;99579.75;5004641;28;20261;-76
2022/06/20 02:46:40;;;;;;;7.17;6.00;;;;;;;21.92;100.00;99594.09;5006629;28;20834;-77
2022/06/20 02:49:09;;;;;;;12.27;7.30;;;;;;;21.97;100.00;99615.69;5010386;28;20191;-77
2022/06/20 02:51:38;;;;;;;9.23;6.33;;;;;;;21.91;99.18;99627.47;5006932;28;20327;-76
2022/06/20 02:54:07;;;;;;;11.73;7.10;;;;;;;21.85;100.00;99624.41;5006537;28;20260;-76
2022/06/20 02:56:41;;;;;;;12.43;6.67;;;;;;;21.84;100.00;99617.47;5009496;28;20188;-77
2022/06/20 02:59:18;;;;;;;9.63;6.57;;;;;;;21.87;97.76;99612.81;5007936;28;20310;-77
2022/06/20 03:01:52;;;;;;;10.13;6.23;;;;;;;21.86;98.67;99612.94;5020545;28;20220;-75
2022/06/20 03:04:20;;;;;;;8.43;6.30;;;;;;;21.87;97.98;99620.72;5004181;28;20191;-78
2022/06/20 03:07:09;;;;;;;12.10;6.60;;;;;;;21.77;98.49;99628.41;5010343;28;20180;-77
2022/06/20 03:09:39;;;;;;;7.73;5.80;;;;;;;21.71;99.81;99628.81;5004737;28;20194;-76
2022/06/20 03:12:06;;;;;;;8.50;6.40;;;;;;;21.74;99.99;99620.72;5006508;28;20935;-77
2022/06/20 03:14:36;;;;;;;7.33;5.53;;;;;;;21.75;99.47;99616.28;5030051;28;20206;-76
2022/06/20 03:17:04;;;;;;;10.60;6.27;;;;;;;21.76;98.89;99604.81;5006317;28;20198;-77
2022/06/20 03:19:33;;;;;;;7.63;5.50;;;;;;;21.75;98.80;99638.22;5022445;28;20192;-77
2022/06/20 03:22:04;;;;;;;6.67;5.50;;;;;;;21.74;98.59;99656.72;5000259;28;20283;-76
2022/06/20 03:24:30;;;;;;;7.03;5.33;;;;;;;21.75;98.50;99658.41;5006120;28;20222;-76
2022/06/20 03:26:57;;;;;;;9.93;5.60;;;;;;;21.78;95.71;99663.47;5004698;28;20184;-75
2022/06/20 03:29:25;;;;;;;9.03;5.40;;;;;;;21.74;95.22;99647.03;5007639;28;20188;-77
2022/06/20 03:31:51;;;;;;;11.13;5.70;;;;;;;21.72;96.39;99642.81;5006972;28;20200;-76
2022/06/20 03:34:17;;;;;;;8.07;5.20;;;;;;;21.74;95.50;99656.72;5014537;28;20192;-78
2022/06/20 03:36:46;;;;;;;7.57;4.77;;;;;;;21.77;95.18;99673.19;5006373;28;20564;-77
2022/06/20 03:39:12;;;;;;;8.57;5.30;;;;;;;21.76;94.16;99663.59;5006920;28;20214;-78
2022/06/20 03:41:39;;;;;;;11.83;5.13;;;;;;;21.72;94.24;99664.72;5000560;28;20680;-77
2022/06/20 03:44:29;;;;;;;8.83;4.90;;;;;;;21.70;94.16;99660.53;5002765;28;20282;-78
2022/06/20 03:47:07;;;;;;;10.00;4.90;;;;;;;21.66;94.35;99666.94;5004168;28;20806;-76
2022/06/20 03:49:40;;;;;;;5.80;4.50;;;;;;;21.64;94.14;99680.19;5009821;28;20187;-77
2022/06/20 03:52:20;;;;;;;10.23;4.70;;;;;;;21.64;93.81;99679.34;5006136;28;20219;-76
2022/06/20 03:54:51;;;;;;;8.93;4.63;;;;;;;21.66;92.80;99661.66;5001249;28;20191;-76
2022/06/20 03:57:25;;;;;;;9.90;4.93;;;;;;;21.53;92.84;99644.00;5002323;28;20707;-76
2022/06/20 04:00:01;;;;;;;7.13;4.60;;;;;;;21.50;93.15;99624.91;5022111;28;20210;-76
2022/06/20 04:02:37;;;;;;;8.53;5.13;;;;;;;21.49;93.53;99642.50;4999232;28;20291;-77
2022/06/20 04:05:05;;;;;;;6.13;4.50;;;;;;;21.55;92.39;99633.38;5012263;28;20285;-76
2022/06/20 04:07:40;;;;;;;9.27;4.33;;;;;;;21.51;91.14;99648.53;5004031;28;20227;-76
2022/06/20 04:10:59;;;;;;;7.40;3.80;;;;;;;21.53;91.62;99658.94;5008946;28;20186;-75
2022/06/20 04:13:37;;;;;;;8.50;4.00;;;;;;;21.56;90.94;99628.00;4956963;28;20601;-76
2022/06/20 04:16:15;;;;;;;9.60;4.17;;;;;;;21.50;91.33;99622.28;5006534;28;20200;-76
2022/06/20 04:19:21;;;;;;;9.70;4.17;;;;;;;21.48;90.52;99631.13;5011134;28;20700;-76
2022/06/20 04:21:55;;;;;;;9.23;4.37;;;;;;;21.44;90.89;99634.91;4977976;28;20239;-77
2022/06/20 04:24:33;;;;;;;9.70;4.33;;;;;;;21.44;90.32;99636.69;5008480;28;20217;-76
2022/06/20 04:27:10;;;;;;;9.23;3.73;;;;;;;21.43;89.89;99635.84;5006727;28;20562;-77
2022/06/20 04:29:44;;;;;;;9.23;3.67;;;;;;;21.43;89.95;99640.25;5021707;28;20735;-77
2022/06/20 04:32:15;;;;;;;13.80;3.83;;;;;;;21.37;89.70;99651.22;5003465;28;20223;-76
2022/06/20 04:34:47;;;;;;;9.40;4.63;;;;;;;21.39;90.20;99651.94;5003710;28;20198;-77
2022/06/20 04:37:35;;;;;;;5.43;3.40;;;;;;;21.41;90.37;99653.53;5023386;28;20199;-76
2022/06/20 04:40:14;;;;;;;10.70;3.90;;;;;;;21.40;90.88;99654.47;5006231;28;20239;-76
2022/06/20 04:42:46;;;;;;;5.93;3.27;;;;;;;21.48;90.90;99665.34;5026712;28;20241;-75
2022/06/20 04:45:16;;;;;;;8.13;3.93;;;;;;;21.61;90.77;99672.50;5008167;28;20226;-75
2022/06/20 04:47:45;;;;;;;5.80;3.53;;;;;;;21.73;90.53;99669.06;5009759;28;20279;-76
2022/06/20 04:50:20;;;;;;;5.07;3.50;;;;;;;21.85;90.07;99675.31;5007374;28;20190;-75
2022/06/20 04:52:49;;;;;;;6.90;3.37;;;;;;;21.95;90.32;99677.34;5013942;28;20210;-75
2022/06/20 04:55:19;;;;;;;7.37;3.73;;;;;;;21.99;90.13;99665.66;5009647;28;20211;-74
2022/06/20 04:57:46;;;;;;;8.57;3.87;;;;;;;21.97;90.56;99668.38;5007271;28;20192;-74
2022/06/20 05:00:22;;;;;;;7.73;3.83;;;;;;;21.98;90.40;99662.16;5006547;28;20311;-75
2022/06/20 05:02:51;;;;;;;9.20;3.80;;;;;;;21.96;90.21;99671.13;5016293;28;20287;-76
2022/06/20 05:05:24;;;;;;;7.73;3.47;;;;;;;21.90;89.55;99670.56;5012580;28;20198;-76
2022/06/20 05:07:50;;;;;;;8.43;4.13;;;;;;;21.88;88.84;99656.66;5002612;28;20193;-76
2022/06/20 05:10:48;;;;;;;10.00;4.47;;;;;;;21.82;89.62;99677.28;5014767;28;20326;-75
2022/06/20 05:13:25;;;;;;;4.27;3.60;;;;;;;21.88;89.70;99690.06;4981554;28;20251;-76
2022/06/20 05:15:53;;;;;;;5.47;3.60;;;;;;;22.02;89.56;99697.03;5008594;28;20664;-76
2022/06/20 05:18:21;;;;;;;5.77;3.73;;;;;;;22.07;89.20;99679.16;5012504;28;20295;-77
2022/06/20 05:20:47;;;;;;;9.53;4.70;;;;;;;22.05;88.49;99684.53;5013780;28;20216;-76
2022/06/20 05:23:20;;;;;;;6.63;4.27;;;;;;;22.08;88.87;99681.66;5015917;28;20209;-76
2022/06/20 05:25:45;;;;;;;7.50;4.10;;;;;;;22.11;88.11;99680.63;5005947;28;20498;-77
2022/06/20 05:28:18;;;;;;;7.40;3.97;;;;;;;22.20;88.04;99687.91;5010025;28;20180;-76
2022/06/20 05:30:45;;;;;;;9.77;4.50;;;;;;;22.31;88.05;99681.09;5015425;28;20699;-76
2022/06/20 05:33:19;;;;;;;10.60;4.73;;;;;;;22.33;87.85;99681.81;5007648;28;20587;-76
2022/06/20 05:35:51;;;;;;;10.80;4.10;;;;;;;22.41;87.56;99689.19;5011642;28;20210;-76
2022/06/20 05:38:26;;;;;;;4.50;3.63;;;;;;;22.63;87.16;99683.31;5022631;28;20279;-77
2022/06/20 05:40:58;;;;;;;9.50;4.10;;;;;;;22.89;86.55;99689.41;5022067;28;20342;-77
2022/06/20 05:43:24;;;;;;;6.57;3.50;;;;;;;23.22;85.64;99695.06;5001793;28;20197;-77
2022/06/20 05:46:14;;;;;;;5.90;3.47;;;;;;;23.55;85.15;99697.09;4998351;28;20565;-77
2022/06/20 05:48:53;;;;;;;5.70;3.77;;;;;;;23.80;83.97;99713.78;5008185;28;20199;-76
2022/06/20 05:51:23;;;;;;;7.60;3.67;;;;;;;23.95;83.73;99692.44;5013460;28;20267;-76
2022/06/20 05:54:02;;;;;;;6.27;3.47;;;;;;;23.99;83.45;99702.69;5014626;28;20220;-76
2022/06/20 05:56:35;;;;;;;6.50;3.43;;;;;;;24.12;82.90;99704.44;5004123;28;20274;-77
2022/06/20 05:59:01;;;;;;;4.83;3.50;;;;;;;24.22;82.53;99705.44;5002135;28;20214;-77
2022/06/20 06:01:33;;;;;;;5.13;3.40;;;;;;;24.37;82.21;99711.34;5005908;28;20236;-76
2022/06/20 06:04:02;;;;;;;3.77;2.90;;;;;;;24.64;81.62;99716.31;5011451;28;20684;-76
2022/06/20 06:06:56;;;;;;;3.70;2.83;;;;;;;25.07;80.36;99708.66;5011146;28;20199;-76
2022/06/20 06:09:26;;;;;;;4.17;3.17;;;;;;;25.43;79.05;99717.31;5008565;28;20200;-77
2022/06/20 06:11:56;;;;;;;6.90;3.67;;;;;;;25.66;78.11;99722.53;5025438;28;20185;-75
2022/06/20 06:14:46;;;;;;;7.03;3.77;;;;;;;25.72;78.12;99722.06;5004101;28;20211;-76
2022/06/20 06:17:32;;;;;;;5.03;3.30;;;;;;;25.86;77.79;99727.06;5022154;28;20600;-76
2022/06/20 06:20:02;;;;;;;4.77;3.00;;;;;;;26.15;77.54;99717.69;5028259;28;20208;-76
2022/06/20 06:22:38;;;;;;;4.07;2.97;;;;;;;26.44;76.53;99711.75;5012115;28;20212;-77
2022/06/20 06:25:17;;;;;;;5.00;3.23;;;;;;;26.77;75.79;99712.47;5013706;28;20183;-76
2022/06/20 06:27:45;;;;;;;6.77;3.07;;;;;;;27.50;74.40;99724.75;5006528;28;20601;-76
2022/06/20 06:30:22;;;;;;;3.80;2.87;;;;;;;28.28;72.40;99738.09;5016546;28;20208;-76
2022/06/20 06:33:07;;;;;;;5.77;3.50;;;;;;;29.26;70.66;99734.28;5012405;28;20206;-76
2022/06/20 06:35:38;;;;;;;7.07;3.13;;;;;;;30.00;67.90;99741.41;5020824;28;20250;-77
2022/06/20 06:38:11;;;;;;;7.40;3.67;;;;;;;30.61;66.28;99760.25;5009788;28;20188;-76
2022/06/20 06:40:52;;;;;;;5.47;2.93;;;;;;;31.53;64.91;99757.84;5011699;28;20294;-77
2022/06/20 06:43:28;;;;;;;9.23;3.30;;;;;;;32.31;62.28;99766.50;5005791;28;20233;-77
2022/06/20 06:45:59;;;;;;;8.60;3.20;;;;;;;32.79;60.73;99781.84;5011382;28;20188;-76
2022/06/20 06:48:28;;;;;;;8.53;3.73;;;;;;;33.04;59.45;99765.69;5007747;28;20284;-76
2022/06/20 06:51:24;;;;;;;7.35;3.22;;;;;;;33.18;59.98;99786.41;5024111;28;20259;-77
2022/06/20 06:53:57;;;;;;;6.93;3.08;;;;;;;33.52;59.49;99789.78;5000218;28;20310;-76
2022/06/20 06:56:34;;;;;;;6.32;3.25;;;;;;;33.84;59.63;99804.03;5003429;28;20194;-75
2022/06/20 06:59:14;;;;;;;5.22;2.90;;;;;;;34.14;59.52;99806.84;5003889;28;20219;-77
2022/06/20 07:01:46;;;;;;;5.43;3.17;;;;;;;34.48;58.46;99808.28;4999863;28;20200;-76
2022/06/20 07:04:26;;;;;;;8.32;3.53;;;;;;;34.55;58.25;99809.25;5001234;28;20180;-77
2022/06/20 07:06:59;;;;;;;6.60;3.15;;;;;;;34.12;58.54;99817.78;4998619;28;20271;-76
2022/06/20 07:09:32;;;;;;;6.20;2.80;;;;;;;34.19;59.40;99828.66;5005959;28;20222;-76
2022/06/20 07:12:23;;;;;;;9.05;3.63;;;;;;;33.94;58.48;99822.63;5006540;28;20227;-77
2022/06/20 07:15:06;;;;;;;6.28;2.70;;;;;;;33.88;58.87;99832.19;5005749;28;20184;-77
2022/06/20 07:17:39;;;;;;;4.90;2.92;;;;;;;33.90;58.91;99832.88;5017660;28;20225;-77
2022/06/20 07:20:05;;;;;;;5.45;2.75;;;;;;;33.60;59.50;99832.69;5009937;28;20296;-76
2022/06/20 07:22:31;;;;;;;4.88;2.95;;;;;;;33.02;59.55;99843.59;5014172;28;20208;-77
2022/06/20 07:24:57;;;;;;;6.22;3.38;;;;;;;32.29;59.59;99848.81;5006388;28;20262;-76
2022/06/20 07:27:30;;;;;;;5.07;2.97;;;;;;;31.20;61.49;99848.63;5020217;28;20172;-76
2022/06/20 07:30:12;;;;;;;4.47;2.88;;;;;;;30.20;63.35;99841.66;5009788;28;20271;-76
2022/06/20 07:32:46;;;;;;;4.73;3.10;;;;;;;29.51;64.33;99835.88;5014709;28;20633;-76
2022/06/20 07:35:21;;;;;;;3.70;2.90;;;;;;;29.13;65.57;99825.22;5025108;28;20270;-75
2022/06/20 07:37:48;;;;;;;5.17;3.00;;;;;;;28.94;66.82;99811.97;4999676;28;20183;-77
2022/06/20 07:40:25;;;;;;;3.70;2.90;;;;;;;28.86;67.57;99781.56;5014556;28;20259;-78
2022/06/20 07:43:00;;;;;;;6.00;3.30;;;;;;;28.71;68.36;99796.28;5008930;28;20195;-75
2022/06/20 07:45:40;;;;;;;3.47;2.77;;;;;;;28.42;69.23;99815.81;5004306;28;20183;-77
2022/06/20 07:48:17;;;;;;;4.27;3.07;;;;;;;28.54;68.87;99811.19;5011634;28;20184;-75
2022/06/20 07:50:47;;;;;;;4.33;2.87;;;;;;;29.19;67.34;99792.66;5002343;28;20195;-76
2022/06/20 07:53:33;;;;;;;5.80;3.23;;;;;;;30.20;65.40;99787.44;5007628;28;20561;-75
2022/06/20 07:56:03;;;;;;;5.10;2.83;;;;;;;31.08;64.11;99780.38;5002620;28;20707;-76
2022/06/20 07:58:34;;;;;;;4.20;2.97;;;;;;;31.77;63.35;99793.69;5008949;28;20262;-77
2022/06/20 08:01:06;;;;;;;3.97;3.00;;;;;;;32.30;62.54;99796.97;5013781;28;20235;-76
2022/06/20 08:03:43;;;;;;;4.73;3.10;;;;;;;32.72;61.62;99787.03;5021227;28;20215;-76
2022/06/20 08:06:32;;;;;;;3.60;3.00;;;;;;;33.19;61.11;99769.31;5022142;28;20734;-77
2022/06/20 08:09:13;;;;;;;8.68;3.78;;;;;;;33.23;61.20;99764.44;5030341;28;20216;-76
2022/06/20 08:11:53;;;;;;;4.25;3.22;;;;;;;33.49;61.20;99777.56;5003962;28;20189;-76
2022/06/20 08:14:47;;;;;;;5.10;3.60;;;;;;;33.99;60.59;99774.59;5004977;28;20187;-77
2022/06/20 08:17:13;;;;;;;4.10;3.38;;;;;;;34.33;59.51;99776.81;5005760;28;20215;-76
2022/06/20 08:19:41;;;;;;;5.45;3.70;;;;;;;34.06;59.51;99791.66;4999503;28;20614;-77
2022/06/20 08:22:09;;;;;;;5.63;4.10;;;;;;;33.49;60.79;99785.63;5003609;28;20216;-77
2022/06/20 08:24:44;;;;;;;5.30;3.92;;;;;;;32.98;61.66;99802.88;5005966;28;20180;-76
2022/06/20 08:27:17;;;;;;;5.35;3.97;;;;;;;32.30;62.34;99810.34;5006773;28;20184;-76
2022/06/20 08:29:57;;;;;;;5.45;4.05;;;;;;;31.68;63.70;99821.41;5001506;28;20177;-75
2022/06/20 08:32:31;;;;;;;5.32;3.75;;;;;;;31.14;64.80;99828.72;5009527;28;20291;-76
2022/06/20 08:35:10;;;;;;;4.15;3.75;;;;;;;30.79;65.91;99819.78;5009762;28;20248;-76
2022/06/20 08:37:48;;;;;;;4.28;3.45;;;;;;;30.62;66.56;99807.31;5007172;28;20262;-76
2022/06/20 08:40:35;;;;;;;5.85;4.20;;;;;;;30.47;66.89;99807.03;5021120;28;20200;-76
2022/06/20 08:43:09;;;;;;;4.43;3.72;;;;;;;30.36;67.36;99813.44;5005552;28;20700;-76
2022/06/20 08:45:37;;;;;;;6.55;3.95;;;;;;;30.34;67.35;99805.56;5023538;28;20573;-77
2022/06/20 08:48:21;;;;;;;5.72;3.90;;;;;;;30.24;67.45;99818.19;4995984;28;20212;-76
2022/06/20 08:51:05;;;;;;;4.10;3.53;;;;;;;30.12;67.97;99817.56;5010710;28;20261;-76
2022/06/20 08:53:55;;;;;;;5.57;3.43;;;;;;;30.06;68.09;99820.84;5014721;28;20212;-76
2022/06/20 08:56:33;;;;;;;4.50;3.87;;;;;;;29.91;68.08;99823.16;5007814;28;20255;-76
2022/06/20 08:59:07;;;;;;;5.07;3.80;;;;;;;29.80;68.83;99838.41;5005371;28;20176;-76
2022/06/20 09:01:51;;;;;;;3.72;3.40;;;;;;;29.80;69.06;99827.72;5011619;28;20202;-76
2022/06/20 09:04:19;;;;;;;5.13;3.83;;;;;;;29.74;69.34;99833.66;5014264;28;20215;-76
2022/06/20 09:06:57;;;;;;;6.40;3.80;;;;;;;29.79;69.57;99826.06;5002065;28;20777;-76
2022/06/20 09:09:47;;;;;;;5.37;4.10;;;;;;;29.83;69.79;99812.41;5011127;28;20253;-76
2022/06/20 09:12:15;;;;;;;6.10;4.43;;;;;;;29.80;69.38;99813.53;5007397;28;20209;-76
2022/06/20 09:15:03;;;;;;;6.87;4.57;;;;;;;29.75;69.44;99816.66;5025917;28;20299;-76
2022/06/20 09:17:38;;;;;;;4.43;3.87;;;;;;;29.90;69.97;99818.81;5003779;28;20187;-76
2022/06/20 09:20:15;;;;;;;4.80;4.37;;;;;;;30.38;69.06;99828.31;5004452;28;20195;-76
2022/06/20 09:22:50;;;;;;;4.37;3.97;;;;;;;30.86;67.87;99833.38;5002208;28;20747;-76
2022/06/20 09:25:52;;;;;;;8.37;4.10;;;;;;;31.36;67.41;99831.00;5005756;28;20176;-76
2022/06/20 09:28:40;;;;;;;6.67;4.80;;;;;;;31.65;67.02;99832.44;5026647;28;20176;-76
2022/06/20 09:31:37;;;;;;;7.93;4.78;;;;;;;31.77;65.86;99839.19;5001170;28;20180;-76
2022/06/20 09:34:14;;;;;;;6.10;4.10;;;;;;;31.61;67.04;99829.25;5004519;28;20215;-77
2022/06/20 09:37:01;;;;;;;5.93;4.43;;;;;;;31.49;67.03;99820.69;5004994;28;20587;-76
2022/06/20 09:39:33;;;;;;;6.50;4.07;;;;;;;31.52;66.88;99820.38;5003658;28;20188;-77
2022/06/20 09:42:09;;;;;;;6.20;4.68;;;;;;;31.66;66.83;99818.06;5022396;28;20710;-78
2022/06/20 09:44:55;;;;;;;5.05;4.22;;;;;;;31.78;67.25;99828.31;5015876;28;20195;-76
2022/06/20 09:47:47;;;;;;;7.13;5.00;;;;;;;31.97;67.53;99836.22;5004280;28;20192;-78
2022/06/20 09:50:37;;;;;;;6.72;4.88;;;;;;;32.04;67.50;99830.03;5003707;28;20248;-77
2022/06/20 09:53:21;;;;;;;8.20;5.05;;;;;;;32.00;67.37;99828.69;5001033;28;20953;-76
2022/06/20 09:56:02;;;;;;;6.13;4.78;;;;;;;31.91;67.98;99830.50;5006098;28;20207;-76
2022/06/20 09:59:02;;;;;;;6.63;4.63;;;;;;;31.94;67.65;99840.03;5020749;28;20220;-76
2022/06/20 10:01:45;;;;;;;7.35;5.13;;;;;;;31.95;67.93;99835.53;5006790;28;20618;-76
2022/06/20 10:04:46;;;;;;;5.85;5.22;;;;;;;32.05;67.24;99826.38;5007985;28;20204;-76
2022/06/20 10:07:27;;;;;;;8.43;5.47;;;;;;;32.06;67.50;99836.06;4992569;28;20200;-77
2022/06/20 10:10:06;;;;;;;7.85;5.68;;;;;;;32.06;67.49;99832.53;5024920;28;20263;-77
2022/06/20 10:12:31;;;;;;;7.90;5.63;;;;;;;32.11;65.96;99834.72;5002632;28;20207;-76
2022/06/20 10:15:06;;;;;;;8.57;5.82;;;;;;;31.98;66.42;99827.19;5006221;28;20177;-77
2022/06/20 10:17:38;;;;;;;9.27;5.43;;;;;;;31.96;67.13;99823.84;5005898;28;20187;-76
2022/06/20 10:20:14;;;;;;;8.70;5.22;;;;;;;32.04;66.80;99816.66;5009463;28;20188;-77
2022/06/20 10:22:49;;;;;;;7.50;5.70;;;;;;;32.01;66.64;99822.34;5023721;28;20561;-77
2022/06/20 10:25:42;;;;;;;6.20;5.60;;;;;;;32.00;66.91;99817.13;5016186;28;20191;-77
2022/06/20 10:28:21;;;;;;;5.88;4.82;;;;;;;31.92;67.27;99826.84;5006610;28;20191;-77
2022/06/20 10:31:02;;;;;;;5.13;4.63;;;;;;;31.84;67.34;99842.88;4998566;28;20238;-77
2022/06/20 10:33:50;;;;;;;4.78;4.28;;;;;;;31.73;67.09;99851.19;5016780;28;20208;-76
2022/06/20 10:36:18;;;;;;;6.13;4.05;;;;;;;31.65;66.57;99861.84;5015625;28;20188;-76
2022/06/20 10:39:08;;;;;;;4.20;3.80;;;;;;;31.60;65.95;99865.03;5001448;28;20185;-77
2022/06/20 10:41:55;;;;;;;4.82;3.80;;;;;;;31.65;65.72;99872.56;4998139;28;20220;-76
2022/06/20 10:44:31;;;;;;;4.50;4.10;;;;;;;31.77;65.88;99872.09;5003769;28;20222;-76
2022/06/20 10:47:08;;;;;;;4.00;3.70;;;;;;;31.86;66.10;99881.00;5002512;28;20725;-76
2022/06/20 10:49:39;;;;;;;4.93;3.80;;;;;;;31.96;65.82;99874.69;5016155;28;20171;-76
2022/06/20 10:52:17;;;;;;;4.40;3.88;;;;;;;32.00;65.28;99884.88;5006230;28;20191;-77
2022/06/20 10:55:24;;;;;;;4.97;3.90;;;;;;;32.10;65.43;99890.09;5006464;28;20204;-76
2022/06/20 10:58:08;;;;;;;5.47;3.80;;;;;;;32.22;65.67;99895.97;5002857;28;20196;-77
2022/06/20 11:00:41;;;;;;;4.38;3.55;;;;;;;32.25;65.33;99890.28;5016580;28;20204;-75
2022/06/20 11:03:38;;;;;;;6.03;3.90;;;;;;;32.19;65.68;99894.47;5001147;28;20544;-77
2022/06/20 11:06:21;;;;;;;5.90;4.13;;;;;;;32.08;66.21;99894.78;5005283;28;20184;-76
2022/06/20 11:09:22;;;;;;;5.05;4.25;;;;;;;32.16;67.47;99896.63;5001728;28;20190;-77
2022/06/20 11:11:47;;;;;;;6.47;4.30;;;;;;;32.13;67.66;99900.50;5006766;28;20181;-77
2022/06/20 11:14:28;;;;;;;3.58;3.28;;;;;;;32.08;67.48;99892.09;5020171;28;20275;-77
2022/06/20 11:17:17;;;;;;;5.32;3.20;;;;;;;32.08;67.39;99908.16;5010998;28;20180;-76
2022/06/20 11:19:48;;;;;;;4.13;3.63;;;;;;;32.20;66.81;99904.16;5004423;28;20268;-76
2022/06/20 11:22:38;;;;;;;4.60;3.42;;;;;;;32.37;67.17;99909.59;5010655;28;20710;-77
2022/06/20 11:25:09;;;;;;;6.25;3.10;;;;;;;32.50;66.05;99917.13;5005348;28;20267;-78
2022/06/20 11:27:53;;;;;;;5.25;3.03;;;;;;;32.44;65.19;99915.97;5011172;28;20196;-76
2022/06/20 11:30:41;;;;;;;5.25;2.92;;;;;;;32.48;65.26;99908.44;5005628;28;20184;-77
2022/06/20 11:33:15;;;;;;;4.00;3.30;;;;;;;32.64;65.75;99915.63;5003076;28;20204;-77
2022/06/20 11:35:46;;;;;;;5.90;3.40;;;;;;;32.74;63.97;99918.13;4993797;28;20241;-75
2022/06/20 11:38:31;;;;;;;3.25;2.80;;;;;;;32.76;64.58;99926.84;4997289;28;20275;-77
2022/06/20 11:41:10;;;;;;;4.50;3.10;;;;;;;32.66;64.23;99929.69;5001782;28;20203;-76
2022/06/20 11:44:15;;;;;;;4.30;3.08;;;;;;;32.55;63.88;99928.16;5002492;28;20212;-76
2022/06/20 11:46:54;;;;;;;5.63;3.10;;;;;;;32.69;64.21;99932.88;5003427;28;20235;-76
2022/06/20 11:49:38;;;;;;;3.45;3.08;;;;;;;32.94;63.94;99940.09;5023624;28;20271;-76
2022/06/20 11:52:16;;;;;;;4.32;3.47;;;;;;;33.02;63.93;99936.56;5009463;28;20188;-75
2022/06/20 11:54:53;;;;;;;4.25;3.33;;;;;;;32.89;63.58;99940.59;5001624;28;20192;-76
2022/06/20 11:57:21;;;;;;;3.15;2.85;;;;;;;32.67;64.14;99936.72;5002020;28;20188;-77
2022/06/20 11:59:56;;;;;;;2.97;2.75;;;;;;;32.37;64.99;99947.06;5002529;28;20188;-77
2022/06/20 12:02:42;;;;;;;3.05;2.80;;;;;;;31.99;65.68;99942.09;5026409;28;20239;-77
2022/06/20 12:06:02;;;;;;;4.63;3.10;;;;;;;31.69;64.88;99960.31;5013426;28;20253;-76
2022/06/20 12:08:39;;;;;;;4.40;3.45;;;;;;;31.29;65.30;99961.78;4980026;28;20196;-76
2022/06/20 12:11:29;;;;;;;3.78;2.97;;;;;;;31.04;65.88;99960.72;4999138;28;20185;-76
2022/06/20 12:14:11;;;;;;;9.93;3.85;;;;;;;30.94;66.71;99968.84;5000665;28;20327;-75
2022/06/20 12:16:48;;;;;;;6.85;4.43;;;;;;;30.49;68.89;99971.41;5000225;28;20350;-75
2022/06/20 12:25:28;;;;;;;8.07;4.43;;;;;;;29.03;74.34;99987.78;5008292;28;20191;-76